Time;durP1;ratioP1;P1;durP2;ratioP2;P2;SDS_P1;SDS_P2;PMS_P1;PMS_P2;Temp;Humidity;BMP_temperature;BMP_pressure;BME280_temperature;BME280_humidity;BME280_pressure;Samples;Min_cycle;Max_cycle;Signal;HPM_P1;HPM_P2
2021/09/02 00:00:58;;;;;;;7.07;6.37;;;10.40;99.90;;;;;;5023660;28;20190;-73
2021/09/02 00:03:23;;;;;;;7.30;6.63;;;9.80;99.90;;;;;;5022646;28;20207;-73
2021/09/02 00:05:49;;;;;;;7.90;7.10;;;10.20;99.90;;;;;;5042335;28;20602;-73
2021/09/02 00:08:14;;;;;;;7.90;7.17;;;9.80;99.90;;;;;;5025085;28;20240;-73
2021/09/02 00:10:40;;;;;;;7.00;6.37;;;9.80;99.90;;;;;;5023945;28;20647;-72
2021/09/02 00:13:06;;;;;;;8.40;6.30;;;10.10;99.90;;;;;;5020481;28;20180;-73
2021/09/02 00:15:32;;;;;;;6.50;5.80;;;9.80;99.90;;;;;;5040646;28;20444;-72
2021/09/02 00:17:58;;;;;;;7.67;6.70;;;9.70;99.90;;;;;;5023753;28;20182;-73
2021/09/02 00:20:23;;;;;;;6.67;6.07;;;10.10;99.90;;;;;;5038673;28;20508;-73
2021/09/02 00:22:49;;;;;;;7.10;6.40;;;9.70;99.90;;;;;;5025695;28;20908;-73
2021/09/02 00:25:14;;;;;;;7.07;6.47;;;10.00;99.90;;;;;;5039370;28;20236;-73
2021/09/02 00:27:40;;;;;;;7.17;6.47;;;9.70;99.90;;;;;;5027008;28;20183;-74
2021/09/02 00:30:06;;;;;;;9.73;7.20;;;9.80;99.90;;;;;;5026681;28;20187;-73
2021/09/02 00:32:32;;;;;;;7.10;6.50;;;10.10;99.90;;;;;;5027570;28;20785;-73
2021/09/02 00:34:57;;;;;;;6.90;6.30;;;9.90;99.90;;;;;;5044132;28;20186;-73
2021/09/02 00:37:23;;;;;;;7.13;6.43;;;9.90;99.90;;;;;;5065530;28;20975;-73
2021/09/02 00:39:48;;;;;;;7.53;6.40;;;9.70;99.90;;;;;;5029441;28;20286;-73
2021/09/02 00:42:14;;;;;;;7.43;6.37;;;10.00;99.90;;;;;;5029342;28;20261;-73
2021/09/02 00:44:45;;;;;;;8.20;6.53;;;9.70;99.90;;;;;;5033782;28;20704;-74
2021/09/02 00:47:15;;;;;;;8.18;7.13;;;10.10;99.90;;;;;;5066979;28;20217;-74
2021/09/02 00:49:41;;;;;;;7.07;6.38;;;9.80;99.90;;;;;;5068943;28;20233;-74
2021/09/02 00:52:15;;;;;;;8.45;7.20;;;9.80;99.90;;;;;;5068818;28;20181;-74
2021/09/02 00:54:42;;;;;;;8.07;7.05;;;9.80;99.90;;;;;;5060339;28;20662;-74
2021/09/02 00:57:10;;;;;;;7.53;6.60;;;9.60;99.90;;;;;;5046132;28;20274;-74
2021/09/02 00:59:36;;;;;;;8.48;6.55;;;9.50;99.90;;;;;;5024609;28;20728;-74
2021/09/02 01:02:02;;;;;;;6.75;6.03;;;9.70;99.90;;;;;;5026923;28;20187;-74
2021/09/02 01:04:28;;;;;;;7.60;6.50;;;9.60;99.90;;;;;;5044045;28;20294;-73
2021/09/02 01:06:53;;;;;;;6.67;6.07;;;9.50;99.90;;;;;;5027035;28;20215;-73
2021/09/02 01:09:19;;;;;;;6.93;6.17;;;9.70;99.90;;;;;;5025897;28;20649;-73
2021/09/02 01:11:45;;;;;;;7.47;6.67;;;9.60;99.90;;;;;;5023715;28;20262;-73
2021/09/02 01:14:17;;;;;;;9.17;6.27;;;9.60;99.90;;;;;;5037749;28;20280;-73
2021/09/02 01:16:55;;;;;;;7.78;6.97;;;9.40;99.90;;;;;;5062962;28;20182;-73
2021/09/02 01:19:21;;;;;;;7.22;6.05;;;9.50;99.90;;;;;;5043404;28;20195;-73
2021/09/02 01:21:50;;;;;;;7.10;6.40;;;9.50;99.90;;;;;;5029446;28;20237;-73
2021/09/02 01:24:16;;;;;;;7.35;6.63;;;9.70;99.90;;;;;;5044297;28;20292;-73
2021/09/02 01:26:42;;;;;;;10.03;7.10;;;9.60;99.90;;;;;;5062257;28;20218;-73
2021/09/02 01:29:11;;;;;;;8.82;6.15;;;9.40;99.90;;;;;;5064739;28;20182;-73
2021/09/02 01:31:38;;;;;;;7.15;6.03;;;9.40;99.90;;;;;;5047734;28;20194;-72
2021/09/02 01:34:04;;;;;;;7.10;6.35;;;9.50;99.90;;;;;;5035018;28;20636;-73
2021/09/02 01:36:29;;;;;;;6.90;6.20;;;9.50;99.90;;;;;;5025036;28;20206;-73
2021/09/02 01:38:55;;;;;;;7.43;6.60;;;9.40;99.90;;;;;;5022425;28;20194;-73
2021/09/02 01:41:20;;;;;;;7.20;5.77;;;9.50;99.90;;;;;;5026874;28;20328;-73
2021/09/02 01:43:48;;;;;;;8.07;6.60;;;9.30;99.90;;;;;;5054289;28;20217;-73
2021/09/02 01:46:14;;;;;;;9.05;6.28;;;9.00;99.90;;;;;;5067526;28;20889;-73
2021/09/02 01:48:39;;;;;;;7.33;6.53;;;9.20;99.90;;;;;;5065995;28;20312;-73
2021/09/02 01:51:05;;;;;;;7.60;6.90;;;9.20;99.90;;;;;;5066618;28;20186;-74
2021/09/02 01:53:31;;;;;;;6.70;6.00;;;9.40;99.90;;;;;;5047116;28;20589;-73
2021/09/02 01:55:56;;;;;;;6.77;5.87;;;9.20;99.90;;;;;;5067281;28;20182;-73
2021/09/02 01:58:22;;;;;;;7.47;6.30;;;9.20;99.90;;;;;;5049645;28;20604;-73
2021/09/02 02:00:47;;;;;;;7.10;6.40;;;9.30;99.90;;;;;;5059300;28;20819;-73
2021/09/02 02:03:13;;;;;;;6.37;5.80;;;9.10;99.90;;;;;;5047096;28;20178;-73
2021/09/02 02:05:39;;;;;;;6.10;5.50;;;9.00;99.90;;;;;;5041932;28;20646;-74
2021/09/02 02:08:05;;;;;;;7.20;6.23;;;9.10;99.90;;;;;;5043513;28;20186;-74
2021/09/02 02:10:31;;;;;;;7.90;6.90;;;9.10;99.90;;;;;;5056546;28;20269;-74
2021/09/02 02:13:01;;;;;;;7.65;6.95;;;9.10;99.90;;;;;;5067237;28;20193;-73
2021/09/02 02:15:28;;;;;;;6.32;5.72;;;9.20;99.90;;;;;;5063459;28;20186;-74
2021/09/02 02:17:55;;;;;;;7.10;6.43;;;9.00;99.90;;;;;;5059550;28;20183;-74
2021/09/02 02:20:20;;;;;;;7.47;6.75;;;9.20;99.90;;;;;;5043829;28;20194;-74
2021/09/02 02:22:47;;;;;;;6.67;6.10;;;9.00;99.90;;;;;;5047301;28;20194;-75
2021/09/02 02:25:14;;;;;;;7.40;6.60;;;9.30;99.90;;;;;;5047308;28;20788;-74
2021/09/02 02:27:40;;;;;;;6.88;6.28;;;9.00;99.90;;;;;;5049315;28;20210;-74
2021/09/02 02:30:09;;;;;;;7.53;6.45;;;9.10;99.90;;;;;;5046597;28;20607;-74
2021/09/02 02:32:34;;;;;;;6.68;5.82;;;8.80;99.90;;;;;;5043540;28;20183;-73
2021/09/02 02:35:00;;;;;;;6.30;5.70;;;8.90;99.90;;;;;;5046438;28;20248;-74
2021/09/02 02:37:26;;;;;;;7.03;6.05;;;8.90;99.90;;;;;;5043409;28;20218;-74
2021/09/02 02:39:52;;;;;;;7.10;6.38;;;9.10;99.90;;;;;;5040935;28;20221;-72
2021/09/02 02:42:17;;;;;;;8.53;6.33;;;8.80;99.90;;;;;;5042852;28;20587;-72
2021/09/02 02:44:43;;;;;;;6.73;6.03;;;9.20;99.90;;;;;;5043068;28;20201;-72
2021/09/02 02:47:09;;;;;;;6.80;6.20;;;8.90;99.90;;;;;;5046623;28;20221;-72
2021/09/02 02:49:36;;;;;;;9.52;6.88;;;9.10;99.90;;;;;;5044266;28;20541;-72
2021/09/02 02:52:04;;;;;;;7.32;6.30;;;9.00;99.90;;;;;;5042391;28;20210;-72
2021/09/02 02:54:30;;;;;;;7.82;6.30;;;8.90;99.90;;;;;;5040900;28;20171;-72
2021/09/02 02:56:55;;;;;;;6.93;6.20;;;9.00;99.90;;;;;;5046230;28;20191;-72
2021/09/02 02:59:21;;;;;;;6.57;5.97;;;8.90;99.90;;;;;;5044132;28;20429;-72
2021/09/02 03:01:47;;;;;;;7.00;5.73;;;9.10;99.90;;;;;;5046387;28;20190;-73
2021/09/02 03:04:12;;;;;;;8.07;6.90;;;9.00;99.90;;;;;;5042685;28;20186;-72
2021/09/02 03:06:38;;;;;;;10.67;5.73;;;8.80;99.90;;;;;;5040890;28;20304;-72
2021/09/02 03:09:04;;;;;;;6.37;5.77;;;8.70;99.90;;;;;;5042797;28;20186;-72
2021/09/02 03:11:30;;;;;;;6.53;5.93;;;8.80;99.90;;;;;;5043515;28;20602;-72
2021/09/02 03:13:56;;;;;;;7.63;5.80;;;8.90;99.90;;;;;;5046378;28;20191;-72
2021/09/02 03:16:21;;;;;;;7.37;5.77;;;8.70;99.90;;;;;;5042545;28;20185;-73
2021/09/02 03:18:47;;;;;;;8.27;5.97;;;8.80;99.90;;;;;;5042895;28;20182;-73
2021/09/02 03:21:13;;;;;;;7.97;6.70;;;8.50;99.90;;;;;;5043674;28;20183;-73
2021/09/02 03:23:38;;;;;;;5.97;5.47;;;8.60;99.90;;;;;;5045857;28;20241;-73
2021/09/02 03:26:04;;;;;;;8.00;6.37;;;8.70;99.90;;;;;;5044138;28;20206;-73
2021/09/02 03:28:29;;;;;;;6.63;5.93;;;8.40;99.90;;;;;;5040793;28;20203;-73
2021/09/02 03:30:55;;;;;;;8.93;7.57;;;8.90;99.90;;;;;;5045904;28;20190;-73
2021/09/02 03:33:21;;;;;;;6.33;5.73;;;8.70;99.90;;;;;;5047094;28;20212;-73
2021/09/02 03:35:46;;;;;;;7.20;6.50;;;8.70;99.90;;;;;;5063724;28;20186;-73
2021/09/02 03:38:12;;;;;;;6.93;6.23;;;8.50;99.90;;;;;;5050716;28;20657;-73
2021/09/02 03:40:37;;;;;;;9.07;6.40;;;8.60;99.90;;;;;;5044045;28;20408;-73
2021/09/02 03:43:03;;;;;;;8.40;6.40;;;8.60;99.90;;;;;;5045365;28;20182;-73
2021/09/02 03:45:29;;;;;;;8.47;6.40;;;8.40;99.90;;;;;;5043590;28;20750;-73
2021/09/02 03:47:54;;;;;;;6.80;5.97;;;8.60;99.90;;;;;;5042225;28;20276;-73
2021/09/02 03:50:20;;;;;;;8.30;6.70;;;8.60;99.90;;;;;;5041872;28;20190;-73
2021/09/02 03:52:46;;;;;;;6.97;6.07;;;8.40;99.90;;;;;;5045890;28;20183;-73
2021/09/02 03:55:12;;;;;;;7.37;6.17;;;8.70;99.90;;;;;;5045308;28;20600;-71
2021/09/02 03:57:39;;;;;;;8.55;6.90;;;8.60;99.90;;;;;;5053369;28;20224;-72
2021/09/02 04:00:07;;;;;;;7.88;6.20;;;8.50;99.90;;;;;;5066079;28;20603;-73
2021/09/02 04:02:33;;;;;;;8.38;6.65;;;8.60;99.90;;;;;;5063564;28;20284;-72
2021/09/02 04:04:58;;;;;;;8.73;6.97;;;8.60;99.90;;;;;;5046575;28;20636;-72
2021/09/02 04:07:24;;;;;;;6.83;6.23;;;8.70;99.90;;;;;;5044982;28;20229;-72
2021/09/02 04:09:49;;;;;;;7.07;5.80;;;8.50;99.90;;;;;;5040129;28;20189;-72
2021/09/02 04:12:15;;;;;;;11.00;6.13;;;8.50;99.90;;;;;;5041858;28;20187;-72
2021/09/02 04:14:40;;;;;;;7.27;6.57;;;8.60;99.90;;;;;;5041195;28;20236;-72
2021/09/02 04:17:07;;;;;;;7.50;6.70;;;8.40;99.90;;;;;;5045523;28;20191;-73
2021/09/02 04:19:32;;;;;;;8.10;6.25;;;8.70;99.90;;;;;;5054612;28;20190;-73
2021/09/02 04:21:59;;;;;;;8.93;6.87;;;8.60;99.90;;;;;;5063135;28;20293;-72
2021/09/02 04:24:26;;;;;;;8.10;6.65;;;8.40;99.90;;;;;;5061207;28;20758;-72
2021/09/02 04:26:54;;;;;;;6.88;6.18;;;8.40;99.90;;;;;;5045373;28;20230;-73
2021/09/02 04:29:20;;;;;;;8.02;6.70;;;8.30;99.90;;;;;;5038085;28;20183;-73
2021/09/02 04:31:46;;;;;;;7.07;6.03;;;8.50;99.90;;;;;;5041518;28;20648;-72
2021/09/02 04:34:12;;;;;;;10.97;6.63;;;8.40;99.90;;;;;;5045007;28;20421;-72
2021/09/02 04:36:37;;;;;;;6.30;5.70;;;8.30;99.90;;;;;;5042977;28;20510;-72
2021/09/02 04:39:04;;;;;;;8.10;6.10;;;8.50;99.90;;;;;;5044420;28;20724;-72
2021/09/02 04:41:30;;;;;;;6.40;5.80;;;8.40;99.90;;;;;;5040153;28;20194;-72
2021/09/02 04:43:55;;;;;;;8.10;7.30;;;8.30;99.90;;;;;;5045964;28;20253;-72
2021/09/02 04:46:21;;;;;;;10.27;7.60;;;8.30;99.90;;;;;;5043038;28;20202;-72
2021/09/02 04:48:47;;;;;;;7.77;7.00;;;8.10;99.90;;;;;;5043365;28;20317;-72
2021/09/02 04:51:12;;;;;;;8.33;7.37;;;8.40;99.90;;;;;;5042779;28;20620;-72
2021/09/02 04:53:38;;;;;;;9.20;7.57;;;8.40;99.90;;;;;;5039645;28;20548;-71
2021/09/02 04:56:03;;;;;;;7.53;6.80;;;8.30;99.90;;;;;;5050390;28;20186;-71
2021/09/02 04:58:29;;;;;;;9.13;7.80;;;8.30;99.90;;;;;;5042878;28;20241;-71
2021/09/02 05:00:54;;;;;;;9.53;7.40;;;8.30;99.90;;;;;;5044780;28;20191;-71
2021/09/02 05:03:20;;;;;;;10.87;7.30;;;8.40;99.90;;;;;;5040921;28;20186;-71
2021/09/02 05:05:46;;;;;;;8.97;8.17;;;8.40;99.90;;;;;;5043366;28;20206;-73
2021/09/02 05:08:11;;;;;;;7.80;7.10;;;8.10;99.90;;;;;;5044653;28;20232;-72
2021/09/02 05:10:37;;;;;;;8.30;7.50;;;8.40;99.90;;;;;;5042915;28;20588;-71
2021/09/02 05:13:02;;;;;;;8.57;7.70;;;8.30;99.90;;;;;;5041630;28;20277;-72
2021/09/02 05:15:29;;;;;;;8.10;6.97;;;8.70;99.90;;;;;;5045701;28;20212;-72
2021/09/02 05:17:54;;;;;;;7.25;6.55;;;8.20;99.90;;;;;;5049029;28;20510;-72
2021/09/02 05:20:20;;;;;;;9.67;7.40;;;8.50;99.90;;;;;;5066095;28;20188;-71
2021/09/02 05:22:45;;;;;;;8.07;7.20;;;8.50;99.90;;;;;;5063985;28;20182;-71
2021/09/02 05:25:12;;;;;;;7.50;6.80;;;8.70;99.90;;;;;;5054288;28;20193;-71
2021/09/02 05:27:38;;;;;;;8.95;8.05;;;8.70;99.90;;;;;;5056663;28;20216;-72
2021/09/02 05:30:06;;;;;;;8.83;7.50;;;8.60;99.90;;;;;;5047678;28;20548;-72
2021/09/02 05:32:32;;;;;;;9.95;7.70;;;8.60;99.90;;;;;;5046534;28;20257;-72
2021/09/02 05:34:57;;;;;;;8.60;7.63;;;8.60;99.90;;;;;;5041958;28;20277;-71
2021/09/02 05:37:23;;;;;;;12.63;7.77;;;8.50;99.90;;;;;;5044331;28;20652;-71
2021/09/02 05:39:48;;;;;;;9.97;7.90;;;8.80;99.90;;;;;;5048436;28;20198;-72
2021/09/02 05:42:14;;;;;;;8.20;6.93;;;8.80;99.90;;;;;;5056271;28;20177;-71
2021/09/02 05:44:40;;;;;;;9.53;7.40;;;8.90;99.90;;;;;;5049194;28;20682;-72
2021/09/02 05:47:05;;;;;;;9.60;8.50;;;9.00;99.90;;;;;;5042883;28;20248;-73
2021/09/02 05:49:31;;;;;;;10.97;9.93;;;8.80;99.90;;;;;;5025725;28;20239;-71
2021/09/02 05:51:56;;;;;;;11.20;8.93;;;9.00;99.90;;;;;;5014792;28;20188;-71
2021/09/02 05:54:22;;;;;;;9.47;8.57;;;9.20;99.90;;;;;;5025972;28;20209;-71
2021/09/02 05:56:48;;;;;;;10.53;9.30;;;9.20;99.90;;;;;;5010072;28;20199;-72
2021/09/02 05:59:14;;;;;;;9.77;8.83;;;9.50;99.90;;;;;;5003852;28;20191;-72
2021/09/02 06:01:39;;;;;;;8.83;7.93;;;9.90;99.90;;;;;;5003764;28;20195;-72
2021/09/02 06:04:05;;;;;;;8.63;7.73;;;10.40;99.90;;;;;;5003480;28;20457;-72
2021/09/02 06:06:30;;;;;;;8.37;7.47;;;10.70;99.90;;;;;;5007784;28;20244;-71
2021/09/02 06:08:56;;;;;;;7.77;7.07;;;11.00;99.90;;;;;;5009426;28;20188;-74
2021/09/02 06:11:21;;;;;;;8.57;7.77;;;11.40;99.90;;;;;;5022218;28;20187;-72
2021/09/02 06:13:47;;;;;;;7.50;6.83;;;11.40;99.90;;;;;;5022101;28;20187;-71
2021/09/02 06:16:12;;;;;;;7.80;7.10;;;11.20;99.90;;;;;;5010538;28;20602;-71
2021/09/02 06:18:38;;;;;;;8.20;7.43;;;11.40;99.90;;;;;;5010128;28;20184;-71
2021/09/02 06:21:04;;;;;;;9.00;8.20;;;11.70;99.90;;;;;;5014540;28;20720;-71
2021/09/02 06:23:29;;;;;;;8.77;7.37;;;11.50;99.90;;;;;;5024221;28;20199;-71
2021/09/02 06:25:55;;;;;;;7.53;6.93;;;11.70;99.90;;;;;;5008566;28;20543;-71
2021/09/02 06:28:20;;;;;;;9.87;8.80;;;11.60;99.90;;;;;;5018470;28;20240;-71
2021/09/02 06:30:46;;;;;;;9.90;8.90;;;11.60;99.90;;;;;;5021023;28;20552;-71
2021/09/02 06:33:12;;;;;;;10.30;8.37;;;11.70;99.90;;;;;;5007705;28;20582;-72
2021/09/02 06:35:37;;;;;;;10.37;9.10;;;11.80;99.90;;;;;;5005305;28;20681;-72
2021/09/02 06:38:05;;;;;;;10.40;9.30;;;11.90;99.90;;;;;;5010681;28;20517;-72
2021/09/02 06:40:31;;;;;;;10.48;9.48;;;12.00;99.90;;;;;;5026930;28;20566;-72
2021/09/02 06:42:56;;;;;;;14.50;10.17;;;12.20;99.90;;;;;;5011881;28;20188;-71
2021/09/02 06:45:22;;;;;;;11.37;10.30;;;12.30;99.90;;;;;;5009674;28;20455;-71
2021/09/02 06:47:47;;;;;;;20.53;14.30;;;12.30;99.90;;;;;;5013995;28;20218;-71
2021/09/02 06:50:14;;;;;;;18.33;14.77;;;12.30;99.90;;;;;;5045006;28;20214;-72
2021/09/02 06:52:41;;;;;;;17.38;15.27;;;12.40;99.90;;;;;;5045596;28;20202;-71
2021/09/02 06:55:07;;;;;;;18.83;15.50;;;12.70;99.90;;;;;;5045522;28;20449;-71
2021/09/02 06:57:34;;;;;;;20.05;17.17;;;12.90;99.90;;;;;;5039668;28;20235;-72
2021/09/02 07:00:00;;;;;;;17.30;14.30;;;13.00;99.90;;;;;;5042524;28;20194;-72
2021/09/02 07:02:26;;;;;;;17.93;16.10;;;13.40;99.90;;;;;;5051982;28;20605;-73
2021/09/02 07:04:51;;;;;;;18.80;16.63;;;13.30;99.90;;;;;;5057663;28;20441;-74
2021/09/02 07:07:18;;;;;;;21.80;16.57;;;13.50;99.90;;;;;;5043355;28;20202;-72
2021/09/02 07:09:44;;;;;;;16.23;12.33;;;13.60;99.90;;;;;;5040692;28;20194;-72
2021/09/02 07:12:10;;;;;;;17.40;14.33;;;13.80;99.90;;;;;;5040007;28;20832;-72
2021/09/02 07:14:35;;;;;;;19.23;13.63;;;14.00;99.90;;;;;;5052098;28;20436;-72
2021/09/02 07:17:01;;;;;;;14.73;13.20;;;13.80;99.90;;;;;;5047462;28;20444;-72
2021/09/02 07:19:27;;;;;;;15.40;13.70;;;14.00;99.90;;;;;;5045303;28;20342;-72
2021/09/02 07:21:53;;;;;;;17.33;13.83;;;14.20;99.90;;;;;;5045547;28;20645;-72
2021/09/02 07:24:18;;;;;;;17.60;14.03;;;14.20;99.90;;;;;;5041846;28;20189;-73
2021/09/02 07:26:44;;;;;;;16.73;13.70;;;14.30;99.90;;;;;;5038055;28;20468;-73
2021/09/02 07:29:10;;;;;;;16.37;14.53;;;14.50;99.90;;;;;;5041396;28;20262;-73
2021/09/02 07:31:36;;;;;;;15.40;13.80;;;14.50;99.90;;;;;;5044697;28;20262;-72
2021/09/02 07:34:03;;;;;;;19.30;13.70;;;14.50;99.90;;;;;;5045540;28;20202;-72
2021/09/02 07:36:28;;;;;;;14.40;12.90;;;14.50;99.90;;;;;;5039814;28;20947;-73
2021/09/02 07:38:54;;;;;;;15.90;14.30;;;14.60;99.90;;;;;;5040632;28;20542;-73
2021/09/02 07:41:20;;;;;;;14.57;13.00;;;14.80;99.90;;;;;;5042431;28;20309;-73
2021/09/02 07:43:45;;;;;;;13.57;11.83;;;14.70;99.90;;;;;;5044675;28;20205;-73
2021/09/02 07:46:11;;;;;;;16.43;12.60;;;14.80;99.90;;;;;;5043332;28;20212;-73
2021/09/02 07:48:37;;;;;;;12.67;11.40;;;15.10;99.90;;;;;;5039459;28;20230;-73
2021/09/02 07:51:03;;;;;;;11.60;10.40;;;15.00;99.90;;;;;;5043002;28;20437;-73
2021/09/02 07:53:29;;;;;;;11.67;10.50;;;15.00;99.90;;;;;;5043255;28;20930;-74
2021/09/02 07:55:56;;;;;;;12.33;11.07;;;15.30;99.90;;;;;;5043124;28;20531;-75
2021/09/02 07:58:22;;;;;;;13.17;10.13;;;15.40;99.90;;;;;;5039883;28;20829;-76
2021/09/02 08:00:48;;;;;;;11.20;9.77;;;15.70;99.90;;;;;;5044237;28;20425;-74
2021/09/02 08:03:14;;;;;;;12.13;10.80;;;15.60;99.90;;;;;;5044846;28;21124;-74
2021/09/02 08:05:40;;;;;;;10.30;9.40;;;15.70;99.90;;;;;;5041116;28;21011;-73
2021/09/02 08:08:07;;;;;;;11.17;10.07;;;15.70;99.90;;;;;;5039649;28;20425;-72
2021/09/02 08:10:33;;;;;;;10.67;9.60;;;15.70;99.90;;;;;;5040684;28;20183;-72
2021/09/02 08:12:59;;;;;;;12.33;10.40;;;15.70;99.90;;;;;;5043999;28;20782;-73
2021/09/02 08:15:25;;;;;;;11.30;10.03;;;15.90;99.90;;;;;;5043062;28;20902;-73
2021/09/02 08:17:51;;;;;;;13.03;9.37;;;15.90;99.90;;;;;;5042504;28;20256;-73
2021/09/02 08:20:18;;;;;;;10.63;9.63;;;16.40;99.90;;;;;;5040652;28;20474;-75
2021/09/02 08:22:44;;;;;;;10.83;8.90;;;16.30;99.90;;;;;;5043673;28;20433;-73
2021/09/02 08:25:11;;;;;;;10.50;9.13;;;16.50;99.90;;;;;;5042614;28;20417;-75
2021/09/02 08:27:38;;;;;;;9.70;8.60;;;16.50;99.90;;;;;;5039115;28;20478;-74
2021/09/02 08:30:04;;;;;;;10.30;9.17;;;16.40;99.90;;;;;;5040648;28;20423;-73
2021/09/02 08:32:30;;;;;;;10.57;9.60;;;16.60;99.90;;;;;;5042550;28;20428;-74
2021/09/02 08:34:55;;;;;;;9.40;7.90;;;17.10;99.90;;;;;;5044207;28;20797;-74
2021/09/02 08:37:21;;;;;;;10.13;9.23;;;16.90;99.90;;;;;;5039600;28;20194;-73
2021/09/02 08:39:46;;;;;;;8.77;7.97;;;17.30;99.60;;;;;;5038927;28;20192;-73
2021/09/02 08:42:15;;;;;;;10.43;9.33;;;17.60;98.90;;;;;;5040975;28;20560;-74
2021/09/02 08:44:40;;;;;;;9.67;8.77;;;17.70;99.60;;;;;;5039193;28;20198;-73
2021/09/02 08:47:07;;;;;;;8.90;7.80;;;18.20;95.50;;;;;;5043115;28;20472;-73
2021/09/02 08:49:32;;;;;;;9.30;8.40;;;18.90;93.30;;;;;;5047671;28;20231;-75
2021/09/02 08:51:58;;;;;;;9.20;8.30;;;19.50;90.50;;;;;;5050213;28;20431;-74
2021/09/02 08:54:24;;;;;;;10.00;9.07;;;20.70;79.40;;;;;;5051448;28;20588;-74
2021/09/02 08:56:49;;;;;;;9.30;8.50;;;22.00;74.00;;;;;;5051829;28;20186;-74
2021/09/02 08:59:15;;;;;;;8.93;8.13;;;23.00;64.80;;;;;;5051500;28;20649;-73
2021/09/02 09:01:40;;;;;;;8.97;8.17;;;24.20;61.90;;;;;;5050995;28;20644;-74
2021/09/02 09:04:12;;;;;;;8.63;7.93;;;25.20;58.90;;;;;;5051856;28;20210;-71
2021/09/02 09:06:39;;;;;;;7.80;7.10;;;26.90;52.90;;;;;;5051229;28;20297;-72
2021/09/02 09:09:12;;;;;;;8.60;7.70;;;27.70;48.70;;;;;;5051138;28;20421;-71
2021/09/02 09:11:49;;;;;;;9.40;8.60;;;28.30;45.70;;;;;;5050498;28;20451;-71
2021/09/02 09:14:18;;;;;;;9.40;8.60;;;29.10;44.10;;;;;;5051170;28;20428;-72
2021/09/02 09:16:55;;;;;;;8.10;7.40;;;28.80;43.30;;;;;;5051070;28;20416;-72
2021/09/02 09:19:40;;;;;;;8.90;8.03;;;28.90;42.60;;;;;;5050696;28;20440;-72
2021/09/02 09:22:08;;;;;;;7.93;7.23;;;30.10;42.00;;;;;;5050654;28;20489;-73
2021/09/02 09:24:42;;;;;;;8.33;7.53;;;31.00;39.40;;;;;;5051561;28;20442;-71
2021/09/02 09:27:08;;;;;;;8.20;7.33;;;31.30;37.70;;;;;;5051229;28;20962;-72
2021/09/02 09:29:33;;;;;;;7.50;6.90;;;32.30;38.00;;;;;;5050653;28;20432;-72
2021/09/02 09:32:11;;;;;;;7.03;6.30;;;32.80;35.60;;;;;;5050652;28;20474;-74
2021/09/02 09:34:37;;;;;;;8.00;7.30;;;33.20;32.50;;;;;;5049827;28;20190;-71
2021/09/02 09:37:07;;;;;;;8.87;7.37;;;33.30;32.70;;;;;;5050851;28;20760;-72
2021/09/02 09:39:37;;;;;;;8.10;7.40;;;33.00;32.10;;;;;;5050816;28;20652;-71
2021/09/02 09:42:06;;;;;;;8.33;7.53;;;32.90;34.20;;;;;;5050804;28;20445;-71
2021/09/02 09:44:32;;;;;;;8.97;7.17;;;32.70;33.20;;;;;;5050187;28;20888;-72
2021/09/02 09:47:13;;;;;;;6.83;6.23;;;33.10;33.60;;;;;;5050715;28;20515;-71
2021/09/02 09:50:02;;;;;;;9.37;7.10;;;33.10;35.00;;;;;;5050164;28;20560;-72
2021/09/02 09:52:42;;;;;;;8.43;7.63;;;33.70;33.00;;;;;;5050519;28;20511;-70
2021/09/02 09:55:13;;;;;;;8.07;7.30;;;33.70;32.40;;;;;;5050799;28;20935;-72
2021/09/02 09:57:41;;;;;;;7.70;7.00;;;34.40;31.70;;;;;;5050491;28;20417;-72
2021/09/02 10:00:07;;;;;;;6.97;6.27;;;34.40;31.40;;;;;;5050086;28;20448;-72
2021/09/02 10:02:38;;;;;;;7.43;6.50;;;34.60;31.20;;;;;;5049833;28;20436;-72
2021/09/02 10:05:08;;;;;;;7.80;7.17;;;35.00;30.80;;;;;;5050308;28;20930;-71
2021/09/02 10:07:35;;;;;;;5.00;4.60;;;34.30;30.80;;;;;;5050609;28;20805;-71
2021/09/02 10:10:02;;;;;;;6.57;5.97;;;35.20;30.60;;;;;;5049826;28;20506;-72
2021/09/02 10:12:34;;;;;;;7.40;6.50;;;36.00;28.70;;;;;;5050481;28;20455;-72
2021/09/02 10:15:06;;;;;;;6.90;5.90;;;36.00;28.80;;;;;;5050260;28;20445;-73
2021/09/02 10:17:33;;;;;;;7.03;6.43;;;36.00;27.90;;;;;;5050525;28;20419;-72
2021/09/02 10:20:02;;;;;;;6.97;6.40;;;36.50;28.50;;;;;;5049826;28;20464;-71
2021/09/02 10:22:28;;;;;;;7.20;6.60;;;36.50;28.70;;;;;;5049403;28;20431;-72
2021/09/02 10:24:54;;;;;;;6.43;5.87;;;37.10;28.20;;;;;;5050105;28;20546;-73
2021/09/02 10:27:22;;;;;;;7.73;7.10;;;37.50;27.30;;;;;;5049681;28;20994;-71
2021/09/02 10:29:49;;;;;;;6.90;6.20;;;37.10;26.90;;;;;;5049821;28;20172;-71
2021/09/02 10:32:23;;;;;;;6.63;5.97;;;36.90;27.60;;;;;;5049726;28;20428;-71
2021/09/02 10:35:15;;;;;;;6.73;6.13;;;37.40;27.20;;;;;;5049993;28;20802;-72
2021/09/02 10:37:41;;;;;;;6.10;5.70;;;36.60;27.10;;;;;;5049728;28;20526;-73
2021/09/02 10:40:16;;;;;;;6.80;6.20;;;37.20;27.20;;;;;;5049139;28;20466;-72
2021/09/02 10:42:53;;;;;;;6.60;6.10;;;38.10;26.80;;;;;;5049611;28;20946;-72
2021/09/02 10:45:28;;;;;;;6.93;6.40;;;38.90;25.70;;;;;;5049657;28;20460;-73
2021/09/02 10:48:01;;;;;;;6.77;6.07;;;39.40;25.20;;;;;;5048799;28;20875;-72
2021/09/02 10:50:42;;;;;;;6.50;6.00;;;38.90;25.40;;;;;;5049661;28;20425;-72
2021/09/02 10:53:09;;;;;;;6.80;6.30;;;39.30;25.80;;;;;;5049376;28;20424;-73
2021/09/02 10:55:37;;;;;;;6.83;6.10;;;39.90;25.10;;;;;;5049279;28;20433;-73
2021/09/02 10:58:07;;;;;;;5.63;5.13;;;38.60;24.80;;;;;;5049153;28;20482;-72
2021/09/02 11:00:42;;;;;;;6.00;5.50;;;38.90;25.60;;;;;;5049460;28;20460;-74
2021/09/02 11:03:25;;;;;;;6.70;6.13;;;39.20;24.70;;;;;;5048896;28;20458;-72
2021/09/02 11:05:55;;;;;;;5.67;5.27;;;37.70;26.30;;;;;;5048712;28;20432;-72
2021/09/02 11:08:34;;;;;;;6.10;5.57;;;37.70;26.10;;;;;;5048722;28;21203;-71
2021/09/02 11:11:21;;;;;;;6.27;5.67;;;38.10;26.20;;;;;;5049063;28;20420;-72
2021/09/02 11:13:48;;;;;;;5.23;4.83;;;38.10;25.50;;;;;;5048271;28;20421;-73
2021/09/02 11:16:16;;;;;;;6.20;5.70;;;38.00;25.60;;;;;;5048978;28;20428;-72
2021/09/02 11:18:54;;;;;;;5.83;5.33;;;36.80;26.00;;;;;;5048567;28;20432;-73
2021/09/02 11:21:23;;;;;;;7.47;5.80;;;36.90;26.80;;;;;;5048985;28;20797;-72
2021/09/02 11:23:58;;;;;;;6.10;5.60;;;37.00;26.20;;;;;;5048769;28;20528;-72
2021/09/02 11:26:38;;;;;;;5.37;4.87;;;37.30;26.40;;;;;;5049044;28;20516;-73
2021/09/02 11:29:05;;;;;;;5.43;5.00;;;37.60;26.60;;;;;;5048024;28;20845;-72
2021/09/02 11:31:31;;;;;;;5.90;5.47;;;38.00;25.00;;;;;;5049029;28;20409;-73
2021/09/02 11:33:58;;;;;;;4.90;4.50;;;37.60;25.70;;;;;;5048447;28;20922;-72
2021/09/02 11:36:24;;;;;;;5.57;5.00;;;36.70;25.40;;;;;;5045961;28;20193;-73
2021/09/02 11:39:06;;;;;;;5.47;5.07;;;37.40;25.60;;;;;;5045047;28;20474;-74
2021/09/02 11:41:32;;;;;;;6.87;5.13;;;38.20;25.80;;;;;;5043377;28;21008;-73
2021/09/02 11:43:58;;;;;;;6.63;4.93;;;38.20;24.70;;;;;;5048266;28;20453;-74
2021/09/02 11:46:24;;;;;;;6.03;5.60;;;37.30;24.90;;;;;;5048611;28;20904;-73
2021/09/02 11:48:57;;;;;;;5.57;5.13;;;36.80;25.40;;;;;;5057038;28;20233;-73
2021/09/02 11:51:24;;;;;;;5.13;4.83;;;37.50;26.50;;;;;;5048360;28;20440;-73
2021/09/02 11:54:05;;;;;;;4.77;4.37;;;38.10;25.10;;;;;;5048618;28;20499;-74
2021/09/02 11:56:31;;;;;;;5.13;4.80;;;38.40;25.10;;;;;;5047841;28;20421;-74
2021/09/02 11:58:58;;;;;;;4.77;4.47;;;38.80;25.20;;;;;;5045643;28;20432;-73
2021/09/02 12:01:24;;;;;;;4.70;4.30;;;38.60;24.80;;;;;;5047803;28;20190;-75
2021/09/02 12:03:51;;;;;;;5.50;5.10;;;39.00;23.80;;;;;;5044377;28;20955;-73
2021/09/02 12:06:31;;;;;;;4.87;4.57;;;39.30;23.90;;;;;;5047892;28;20473;-73
2021/09/02 12:09:01;;;;;;;5.00;4.60;;;39.00;23.40;;;;;;5047725;28;20417;-73
2021/09/02 12:11:28;;;;;;;6.30;5.80;;;37.10;24.10;;;;;;5048398;28;20425;-73
2021/09/02 12:13:54;;;;;;;5.30;4.90;;;36.30;24.90;;;;;;5047936;28;20751;-73
2021/09/02 12:16:22;;;;;;;5.57;5.10;;;37.30;25.60;;;;;;5047671;28;20994;-73
2021/09/02 12:18:56;;;;;;;4.97;4.63;;;37.70;25.90;;;;;;5048542;28;20421;-74
2021/09/02 12:21:27;;;;;;;4.83;4.43;;;39.00;25.10;;;;;;5048239;28;20536;-75
2021/09/02 12:23:58;;;;;;;5.80;4.63;;;39.40;23.30;;;;;;5048125;28;20443;-75
2021/09/02 12:26:41;;;;;;;5.10;4.70;;;38.60;23.70;;;;;;5051784;28;20983;-74
2021/09/02 12:29:15;;;;;;;4.90;4.50;;;38.30;24.70;;;;;;5052316;28;20484;-72
2021/09/02 12:31:41;;;;;;;4.90;4.50;;;38.20;23.80;;;;;;5052158;28;20791;-72
2021/09/02 12:34:20;;;;;;;5.20;4.73;;;38.10;24.60;;;;;;5052167;28;20453;-74
2021/09/02 12:36:58;;;;;;;5.83;5.20;;;38.60;25.00;;;;;;5051583;28;20648;-74
2021/09/02 12:39:26;;;;;;;5.20;4.77;;;39.20;23.50;;;;;;5051910;28;20941;-73
2021/09/02 12:41:58;;;;;;;5.33;4.60;;;39.60;23.10;;;;;;5050916;28;21013;-74
2021/09/02 12:44:32;;;;;;;4.27;3.97;;;39.30;23.40;;;;;;5051415;28;20472;-73
2021/09/02 12:47:12;;;;;;;4.60;4.20;;;39.00;22.90;;;;;;5048847;28;20732;-72
2021/09/02 12:49:37;;;;;;;5.10;4.53;;;39.90;23.60;;;;;;5052610;28;20834;-73